sensor_id;sensor_type;location;lat;lon;timestamp;pressure;altitude;pressure_sealevel;temperature;humidity
81905;BME280;71370;-33.792;151.032;2023-07-08T08:00:56;100618.90;;;17.17;44.86
81905;BME280;71370;-33.792;151.032;2023-07-08T08:02:03;100625.11;;;17.13;44.92
81905;BME280;71370;-33.792;151.032;2023-07-08T08:03:11;100628.95;;;17.10;44.95
81905;BME280;71370;-33.792;151.032;2023-07-08T08:04:18;100626.91;;;17.09;44.98
81905;BME280;71370;-33.792;151.032;2023-07-08T08:05:25;100627.78;;;17.05;45.18
81905;BME280;71370;-33.792;151.032;2023-07-08T08:06:33;100631.94;;;17.03;45.21
81905;BME280;71370;-33.792;151.032;2023-07-08T08:07:40;100625.24;;;17.02;45.12
81905;BME280;71370;-33.792;151.032;2023-07-08T08:08:48;100629.44;;;16.99;45.06
81905;BME280;71370;-33.792;151.032;2023-07-08T08:09:55;100628.77;;;16.98;45.23
81905;BME280;71370;-33.792;151.032;2023-07-08T08:11:03;100632.05;;;16.96;45.24
81905;BME280;71370;-33.792;151.032;2023-07-08T08:12:11;100627.65;;;16.95;45.34
81905;BME280;71370;-33.792;151.032;2023-07-08T08:13:19;100624.73;;;16.93;45.35
81905;BME280;71370;-33.792;151.032;2023-07-08T08:14:26;100628.55;;;16.90;45.43
81905;BME280;71370;-33.792;151.032;2023-07-08T08:15:33;100618.61;;;16.90;45.90
81905;BME280;71370;-33.792;151.032;2023-07-08T08:16:41;100621.81;;;16.90;45.97
81905;BME280;71370;-33.792;151.032;2023-07-08T08:17:49;100621.92;;;16.88;46.17
81905;BME280;71370;-33.792;151.032;2023-07-08T08:18:58;100622.31;;;16.87;46.58
81905;BME280;71370;-33.792;151.032;2023-07-08T08:20:07;100625.73;;;16.86;46.31
81905;BME280;71370;-33.792;151.032;2023-07-08T08:21:17;100631.13;;;16.84;45.95
81905;BME280;71370;-33.792;151.032;2023-07-08T08:22:26;100637.91;;;16.83;45.88
81905;BME280;71370;-33.792;151.032;2023-07-08T08:23:34;100633.17;;;16.81;45.74
81905;BME280;71370;-33.792;151.032;2023-07-08T08:24:41;100637.16;;;16.79;45.90
81905;BME280;71370;-33.792;151.032;2023-07-08T08:25:50;100628.73;;;16.77;45.82
81905;BME280;71370;-33.792;151.032;2023-07-08T08:26:59;100629.32;;;16.75;46.00
81905;BME280;71370;-33.792;151.032;2023-07-08T08:28:06;100630.96;;;16.74;46.21
81905;BME280;71370;-33.792;151.032;2023-07-08T08:29:13;100628.18;;;16.72;46.26
81905;BME280;71370;-33.792;151.032;2023-07-08T08:30:21;100632.35;;;16.71;46.42
81905;BME280;71370;-33.792;151.032;2023-07-08T08:31:29;100626.02;;;16.69;46.34
81905;BME280;71370;-33.792;151.032;2023-07-08T08:32:37;100623.05;;;16.68;46.48
81905;BME280;71370;-33.792;151.032;2023-07-08T08:33:45;100621.30;;;16.67;46.45
81905;BME280;71370;-33.792;151.032;2023-07-08T08:34:53;100624.35;;;16.66;46.24
81905;BME280;71370;-33.792;151.032;2023-07-08T08:36:02;100623.52;;;16.65;46.30
81905;BME280;71370;-33.792;151.032;2023-07-08T08:37:09;100618.81;;;16.63;46.47
81905;BME280;71370;-33.792;151.032;2023-07-08T08:38:16;100623.09;;;16.62;46.69
81905;BME280;71370;-33.792;151.032;2023-07-08T08:39:25;100626.77;;;16.64;47.00
81905;BME280;71370;-33.792;151.032;2023-07-08T08:40:35;100631.27;;;16.62;46.96
81905;BME280;71370;-33.792;151.032;2023-07-08T08:41:43;100629.77;;;16.60;46.97
81905;BME280;71370;-33.792;151.032;2023-07-08T08:43:00;100631.58;;;16.59;47.16
81905;BME280;71370;-33.792;151.032;2023-07-08T08:44:14;100634.05;;;16.59;47.18
81905;BME280;71370;-33.792;151.032;2023-07-08T08:45:24;100631.09;;;16.58;47.15
81905;BME280;71370;-33.792;151.032;2023-07-08T08:48:04;100637.85;;;16.58;47.24
81905;BME280;71370;-33.792;151.032;2023-07-08T08:51:33;100650.67;;;16.57;47.07
81905;BME280;71370;-33.792;151.032;2023-07-08T08:52:41;100655.29;;;16.57;47.24
81905;BME280;71370;-33.792;151.032;2023-07-08T08:53:53;100654.61;;;16.55;47.31
81905;BME280;71370;-33.792;151.032;2023-07-08T08:56:21;100654.66;;;16.59;48.20
81905;BME280;71370;-33.792;151.032;2023-07-08T08:58:58;100650.17;;;17.13;48.54
81905;BME280;71370;-33.792;151.032;2023-07-08T09:00:08;100655.52;;;17.17;47.16
81905;BME280;71370;-33.792;151.032;2023-07-08T09:01:17;100652.66;;;17.13;47.09
81905;BME280;71370;-33.792;151.032;2023-07-08T09:04:22;100651.27;;;17.08;47.00
81905;BME280;71370;-33.792;151.032;2023-07-08T09:05:22;100646.67;;;17.03;46.83
81905;BME280;71370;-33.792;151.032;2023-07-08T09:06:32;100645.60;;;16.99;46.66
81905;BME280;71370;-33.792;151.032;2023-07-08T09:08:04;100640.52;;;16.97;46.66
81905;BME280;71370;-33.792;151.032;2023-07-08T09:09:43;100632.08;;;16.91;46.52
81905;BME280;71370;-33.792;151.032;2023-07-08T09:11:00;100631.73;;;16.86;46.59
81905;BME280;71370;-33.792;151.032;2023-07-08T09:12:16;100625.83;;;16.83;46.64
81905;BME280;71370;-33.792;151.032;2023-07-08T09:13:35;100625.17;;;16.82;46.68
81905;BME280;71370;-33.792;151.032;2023-07-08T09:14:42;100625.29;;;16.78;46.70
81905;BME280;71370;-33.792;151.032;2023-07-08T09:15:57;100625.05;;;16.76;46.53
81905;BME280;71370;-33.792;151.032;2023-07-08T09:19:05;100636.02;;;16.68;46.58
81905;BME280;71370;-33.792;151.032;2023-07-08T09:20:26;100634.91;;;16.64;46.89
81905;BME280;71370;-33.792;151.032;2023-07-08T09:25:45;100640.98;;;16.54;46.94
81905;BME280;71370;-33.792;151.032;2023-07-08T09:26:55;100638.58;;;16.52;46.77
81905;BME280;71370;-33.792;151.032;2023-07-08T09:28:08;100638.67;;;16.50;46.80
81905;BME280;71370;-33.792;151.032;2023-07-08T09:29:15;100638.20;;;16.48;47.03
81905;BME280;71370;-33.792;151.032;2023-07-08T09:30:23;100643.23;;;16.47;47.15
81905;BME280;71370;-33.792;151.032;2023-07-08T09:31:39;100636.18;;;16.46;47.02
81905;BME280;71370;-33.792;151.032;2023-07-08T09:32:49;100640.61;;;16.46;46.73
81905;BME280;71370;-33.792;151.032;2023-07-08T09:34:17;100641.02;;;16.45;46.66
81905;BME280;71370;-33.792;151.032;2023-07-08T09:35:27;100644.09;;;16.43;46.57
81905;BME280;71370;-33.792;151.032;2023-07-08T09:36:40;100642.34;;;16.42;46.64
81905;BME280;71370;-33.792;151.032;2023-07-08T09:37:48;100643.61;;;16.42;46.42
81905;BME280;71370;-33.792;151.032;2023-07-08T09:38:56;100647.88;;;16.42;46.63
81905;BME280;71370;-33.792;151.032;2023-07-08T09:40:32;100651.10;;;16.41;46.45
81905;BME280;71370;-33.792;151.032;2023-07-08T09:41:39;100646.73;;;16.39;46.37
81905;BME280;71370;-33.792;151.032;2023-07-08T09:45:24;100645.73;;;16.42;46.45
81905;BME280;71370;-33.792;151.032;2023-07-08T09:46:36;100645.90;;;16.42;46.29
81905;BME280;71370;-33.792;151.032;2023-07-08T09:47:44;100645.91;;;16.42;46.36
81905;BME280;71370;-33.792;151.032;2023-07-08T09:48:52;100647.70;;;16.42;46.45
81905;BME280;71370;-33.792;151.032;2023-07-08T09:50:00;100639.79;;;16.40;46.28
81905;BME280;71370;-33.792;151.032;2023-07-08T09:51:09;100642.20;;;16.42;46.16
81905;BME280;71370;-33.792;151.032;2023-07-08T09:52:17;100644.70;;;16.41;46.43
81905;BME280;71370;-33.792;151.032;2023-07-08T09:53:24;100646.59;;;16.42;46.73
81905;BME280;71370;-33.792;151.032;2023-07-08T09:54:33;100644.27;;;16.43;46.51
81905;BME280;71370;-33.792;151.032;2023-07-08T09:55:41;100652.43;;;16.43;46.41
81905;BME280;71370;-33.792;151.032;2023-07-08T09:56:57;100656.49;;;16.44;46.31
81905;BME280;71370;-33.792;151.032;2023-07-08T09:58:05;100654.40;;;16.43;46.39
81905;BME280;71370;-33.792;151.032;2023-07-08T09:59:16;100654.77;;;16.43;46.44
81905;BME280;71370;-33.792;151.032;2023-07-08T10:00:33;100654.77;;;16.43;46.81
81905;BME280;71370;-33.792;151.032;2023-07-08T10:01:42;100657.46;;;16.42;46.66
81905;BME280;71370;-33.792;151.032;2023-07-08T10:02:54;100660.89;;;16.40;46.65
81905;BME280;71370;-33.792;151.032;2023-07-08T10:04:02;100661.13;;;16.39;46.92
81905;BME280;71370;-33.792;151.032;2023-07-08T10:05:22;100668.06;;;16.38;47.00
81905;BME280;71370;-33.792;151.032;2023-07-08T10:06:32;100667.10;;;16.40;47.23
81905;BME280;71370;-33.792;151.032;2023-07-08T10:07:39;100668.34;;;16.45;47.27
81905;BME280;71370;-33.792;151.032;2023-07-08T10:08:46;100668.80;;;16.47;47.08
81905;BME280;71370;-33.792;151.032;2023-07-08T10:09:55;100671.52;;;16.45;46.88
81905;BME280;71370;-33.792;151.032;2023-07-08T10:11:26;100667.11;;;16.44;46.70
81905;BME280;71370;-33.792;151.032;2023-07-08T10:12:37;100670.01;;;16.43;46.76
81905;BME280;71370;-33.792;151.032;2023-07-08T10:13:49;100669.55;;;16.41;46.63
81905;BME280;71370;-33.792;151.032;2023-07-08T10:14:58;100665.70;;;16.39;46.37
81905;BME280;71370;-33.792;151.032;2023-07-08T10:17:19;100678.27;;;16.36;46.46
81905;BME280;71370;-33.792;151.032;2023-07-08T10:18:30;100677.08;;;16.34;46.67
81905;BME280;71370;-33.792;151.032;2023-07-08T10:19:37;100683.66;;;16.34;46.68
81905;BME280;71370;-33.792;151.032;2023-07-08T10:22:39;100681.52;;;16.29;46.47
81905;BME280;71370;-33.792;151.032;2023-07-08T10:24:41;100681.55;;;16.29;46.33
81905;BME280;71370;-33.792;151.032;2023-07-08T10:27:23;100668.92;;;16.25;46.16
81905;BME280;71370;-33.792;151.032;2023-07-08T10:28:53;100680.30;;;16.24;46.39
81905;BME280;71370;-33.792;151.032;2023-07-08T10:30:16;100679.81;;;16.23;46.43
81905;BME280;71370;-33.792;151.032;2023-07-08T10:39:01;100703.35;;;16.15;46.28
81905;BME280;71370;-33.792;151.032;2023-07-08T10:41:50;100699.66;;;16.14;46.16
81905;BME280;71370;-33.792;151.032;2023-07-08T10:44:49;100714.09;;;16.13;46.08
81905;BME280;71370;-33.792;151.032;2023-07-08T10:47:48;100725.89;;;16.10;46.10
81905;BME280;71370;-33.792;151.032;2023-07-08T10:56:40;100729.29;;;16.04;46.25
81905;BME280;71370;-33.792;151.032;2023-07-08T11:00:50;100745.41;;;16.00;45.98
81905;BME280;71370;-33.792;151.032;2023-07-08T11:03:39;100748.30;;;15.99;46.16
81905;BME280;71370;-33.792;151.032;2023-07-08T11:06:52;100750.87;;;15.96;46.03
81905;BME280;71370;-33.792;151.032;2023-07-08T11:08:26;100750.34;;;15.96;46.21
81905;BME280;71370;-33.792;151.032;2023-07-08T11:09:46;100754.98;;;15.95;45.97
81905;BME280;71370;-33.792;151.032;2023-07-08T11:11:22;100756.79;;;15.94;45.98
81905;BME280;71370;-33.792;151.032;2023-07-08T11:13:48;100752.27;;;15.91;45.95
81905;BME280;71370;-33.792;151.032;2023-07-08T11:16:48;100761.33;;;15.91;46.02
81905;BME280;71370;-33.792;151.032;2023-07-08T11:18:08;100764.04;;;15.90;46.00
81905;BME280;71370;-33.792;151.032;2023-07-08T11:19:23;100765.81;;;15.89;46.03
81905;BME280;71370;-33.792;151.032;2023-07-08T11:20:55;100764.94;;;15.89;46.26
81905;BME280;71370;-33.792;151.032;2023-07-08T11:22:09;100771.71;;;15.88;46.16
81905;BME280;71370;-33.792;151.032;2023-07-08T11:25:44;100775.30;;;15.87;46.52
81905;BME280;71370;-33.792;151.032;2023-07-08T11:27:01;100776.91;;;15.87;46.49
81905;BME280;71370;-33.792;151.032;2023-07-08T11:28:17;100776.89;;;15.87;46.35
81905;BME280;71370;-33.792;151.032;2023-07-08T11:30:34;100772.83;;;15.87;46.65
81905;BME280;71370;-33.792;151.032;2023-07-08T11:31:46;100776.05;;;15.86;46.49
81905;BME280;71370;-33.792;151.032;2023-07-08T11:33:05;100775.34;;;15.86;46.61
81905;BME280;71370;-33.792;151.032;2023-07-08T11:34:17;100783.52;;;15.85;46.53
81905;BME280;71370;-33.792;151.032;2023-07-08T11:35:36;100782.10;;;15.85;46.64
81905;BME280;71370;-33.792;151.032;2023-07-08T11:36:46;100788.16;;;15.84;46.71
81905;BME280;71370;-33.792;151.032;2023-07-08T11:37:56;100790.65;;;15.85;46.78
81905;BME280;71370;-33.792;151.032;2023-07-08T11:39:04;100793.33;;;15.84;46.99
81905;BME280;71370;-33.792;151.032;2023-07-08T11:40:32;100794.21;;;15.84;46.59
81905;BME280;71370;-33.792;151.032;2023-07-08T11:42:14;100797.08;;;15.84;46.85
81905;BME280;71370;-33.792;151.032;2023-07-08T11:43:28;100796.17;;;15.84;46.89
81905;BME280;71370;-33.792;151.032;2023-07-08T11:44:44;100795.33;;;15.82;46.84
81905;BME280;71370;-33.792;151.032;2023-07-08T11:45:57;100787.17;;;15.82;46.99
81905;BME280;71370;-33.792;151.032;2023-07-08T11:47:21;100785.41;;;15.82;46.94
81905;BME280;71370;-33.792;151.032;2023-07-08T11:48:35;100785.63;;;15.81;47.14
81905;BME280;71370;-33.792;151.032;2023-07-08T11:49:47;100779.23;;;15.81;47.05
81905;BME280;71370;-33.792;151.032;2023-07-08T11:50:56;100788.65;;;15.80;47.00
81905;BME280;71370;-33.792;151.032;2023-07-08T11:52:04;100776.61;;;15.80;47.00
81905;BME280;71370;-33.792;151.032;2023-07-08T11:53:14;100773.78;;;15.80;47.06
81905;BME280;71370;-33.792;151.032;2023-07-08T11:54:37;100775.93;;;15.79;46.80
81905;BME280;71370;-33.792;151.032;2023-07-08T11:55:54;100777.32;;;15.80;47.00
81905;BME280;71370;-33.792;151.032;2023-07-08T11:57:06;100781.11;;;15.78;46.95
81905;BME280;71370;-33.792;151.032;2023-07-08T11:58:51;100785.20;;;15.78;47.13
81905;BME280;71370;-33.792;151.032;2023-07-08T12:00:22;100780.61;;;15.77;47.18
81905;BME280;71370;-33.792;151.032;2023-07-08T12:01:39;100782.55;;;15.78;47.04
81905;BME280;71370;-33.792;151.032;2023-07-08T12:03:21;100780.67;;;15.75;47.13
81905;BME280;71370;-33.792;151.032;2023-07-08T12:05:01;100780.50;;;15.75;47.11
81905;BME280;71370;-33.792;151.032;2023-07-08T12:08:56;100761.58;;;15.73;47.06
81905;BME280;71370;-33.792;151.032;2023-07-08T12:10:05;100755.21;;;15.73;46.96
81905;BME280;71370;-33.792;151.032;2023-07-08T12:11:14;100757.16;;;15.73;47.30
81905;BME280;71370;-33.792;151.032;2023-07-08T12:12:30;100749.89;;;15.72;47.17
81905;BME280;71370;-33.792;151.032;2023-07-08T12:13:38;100750.98;;;15.72;47.32
81905;BME280;71370;-33.792;151.032;2023-07-08T12:14:45;100750.29;;;15.71;47.11
81905;BME280;71370;-33.792;151.032;2023-07-08T12:15:52;100747.65;;;15.71;47.20
81905;BME280;71370;-33.792;151.032;2023-07-08T12:16:59;100749.95;;;15.71;47.01
81905;BME280;71370;-33.792;151.032;2023-07-08T12:18:19;100748.73;;;15.71;47.19
81905;BME280;71370;-33.792;151.032;2023-07-08T12:19:28;100748.05;;;15.69;46.90
81905;BME280;71370;-33.792;151.032;2023-07-08T12:20:39;100756.21;;;15.69;46.90
81905;BME280;71370;-33.792;151.032;2023-07-08T12:21:48;100751.79;;;15.69;47.04
81905;BME280;71370;-33.792;151.032;2023-07-08T12:22:55;100750.39;;;15.68;46.94
81905;BME280;71370;-33.792;151.032;2023-07-08T12:24:07;100754.65;;;15.68;47.13
81905;BME280;71370;-33.792;151.032;2023-07-08T12:25:21;100757.67;;;15.68;47.21
81905;BME280;71370;-33.792;151.032;2023-07-08T12:26:28;100755.06;;;15.67;47.05
81905;BME280;71370;-33.792;151.032;2023-07-08T12:27:35;100759.64;;;15.68;46.98
81905;BME280;71370;-33.792;151.032;2023-07-08T12:28:43;100752.38;;;15.68;47.10
81905;BME280;71370;-33.792;151.032;2023-07-08T12:29:50;100748.02;;;15.66;47.05
81905;BME280;71370;-33.792;151.032;2023-07-08T12:30:57;100747.47;;;15.66;47.07
81905;BME280;71370;-33.792;151.032;2023-07-08T12:32:08;100743.23;;;15.65;47.14
81905;BME280;71370;-33.792;151.032;2023-07-08T12:34:32;100749.95;;;15.66;47.09
81905;BME280;71370;-33.792;151.032;2023-07-08T12:35:40;100741.84;;;15.65;46.98
81905;BME280;71370;-33.792;151.032;2023-07-08T12:36:48;100745.55;;;15.64;46.84
81905;BME280;71370;-33.792;151.032;2023-07-08T12:37:59;100740.61;;;15.64;46.98
81905;BME280;71370;-33.792;151.032;2023-07-08T12:39:11;100744.00;;;15.63;46.81
81905;BME280;71370;-33.792;151.032;2023-07-08T12:40:26;100739.40;;;15.63;47.09
81905;BME280;71370;-33.792;151.032;2023-07-08T12:41:35;100734.30;;;15.63;47.08
81905;BME280;71370;-33.792;151.032;2023-07-08T12:42:43;100735.90;;;15.62;46.81
81905;BME280;71370;-33.792;151.032;2023-07-08T12:43:51;100736.64;;;15.61;47.12
81905;BME280;71370;-33.792;151.032;2023-07-08T12:44:59;100727.63;;;15.60;47.10
81905;BME280;71370;-33.792;151.032;2023-07-08T12:46:09;100729.39;;;15.61;46.99
81905;BME280;71370;-33.792;151.032;2023-07-08T12:47:20;100729.11;;;15.58;47.13
81905;BME280;71370;-33.792;151.032;2023-07-08T12:48:33;100734.38;;;15.60;47.14
81905;BME280;71370;-33.792;151.032;2023-07-08T12:49:40;100734.40;;;15.60;47.37
81905;BME280;71370;-33.792;151.032;2023-07-08T12:50:46;100723.40;;;15.60;47.27
81905;BME280;71370;-33.792;151.032;2023-07-08T12:51:56;100720.56;;;15.60;47.15
81905;BME280;71370;-33.792;151.032;2023-07-08T12:53:05;100716.89;;;15.58;47.26
81905;BME280;71370;-33.792;151.032;2023-07-08T12:54:16;100720.79;;;15.57;47.33
81905;BME280;71370;-33.792;151.032;2023-07-08T12:55:23;100721.70;;;15.57;47.44
81905;BME280;71370;-33.792;151.032;2023-07-08T12:56:31;100719.23;;;15.57;47.36
81905;BME280;71370;-33.792;151.032;2023-07-08T12:57:41;100722.92;;;15.57;47.45
81905;BME280;71370;-33.792;151.032;2023-07-08T12:58:58;100716.02;;;15.57;47.56
81905;BME280;71370;-33.792;151.032;2023-07-08T13:00:10;100715.03;;;15.55;47.52
81905;BME280;71370;-33.792;151.032;2023-07-08T13:01:24;100719.28;;;15.55;47.68
81905;BME280;71370;-33.792;151.032;2023-07-08T13:02:32;100711.31;;;15.56;47.41
81905;BME280;71370;-33.792;151.032;2023-07-08T13:03:44;100708.98;;;15.56;47.56
81905;BME280;71370;-33.792;151.032;2023-07-08T13:04:58;100714.34;;;15.55;47.45
81905;BME280;71370;-33.792;151.032;2023-07-08T13:06:09;100712.77;;;15.55;47.63
81905;BME280;71370;-33.792;151.032;2023-07-08T13:07:42;100711.55;;;15.54;47.79
81905;BME280;71370;-33.792;151.032;2023-07-08T13:08:51;100714.61;;;15.52;47.80
81905;BME280;71370;-33.792;151.032;2023-07-08T13:09:59;100714.97;;;15.52;47.91
81905;BME280;71370;-33.792;151.032;2023-07-08T13:11:07;100713.38;;;15.52;47.65
81905;BME280;71370;-33.792;151.032;2023-07-08T13:12:20;100718.52;;;15.51;47.85
81905;BME280;71370;-33.792;151.032;2023-07-08T13:13:35;100713.05;;;15.51;47.89
81905;BME280;71370;-33.792;151.032;2023-07-08T13:14:44;100712.73;;;15.50;47.76
81905;BME280;71370;-33.792;151.032;2023-07-08T13:15:52;100710.09;;;15.50;47.82
81905;BME280;71370;-33.792;151.032;2023-07-08T13:16:59;100706.95;;;15.49;47.76
81905;BME280;71370;-33.792;151.032;2023-07-08T13:18:39;100704.42;;;15.49;47.98
81905;BME280;71370;-33.792;151.032;2023-07-08T13:19:48;100697.41;;;15.47;47.92
81905;BME280;71370;-33.792;151.032;2023-07-08T13:20:55;100694.05;;;15.47;47.97
81905;BME280;71370;-33.792;151.032;2023-07-08T13:22:03;100696.39;;;15.47;47.95
81905;BME280;71370;-33.792;151.032;2023-07-08T13:23:12;100696.01;;;15.47;47.93
81905;BME280;71370;-33.792;151.032;2023-07-08T13:24:21;100686.09;;;15.47;47.83
81905;BME280;71370;-33.792;151.032;2023-07-08T13:25:30;100681.17;;;15.46;48.06
81905;BME280;71370;-33.792;151.032;2023-07-08T13:26:38;100685.93;;;15.46;47.85
81905;BME280;71370;-33.792;151.032;2023-07-08T13:27:56;100680.44;;;15.46;48.36
81905;BME280;71370;-33.792;151.032;2023-07-08T13:29:22;100679.19;;;15.46;48.38
81905;BME280;71370;-33.792;151.032;2023-07-08T13:30:31;100681.65;;;15.47;48.28
81905;BME280;71370;-33.792;151.032;2023-07-08T13:31:39;100688.30;;;15.49;48.38
81905;BME280;71370;-33.792;151.032;2023-07-08T13:32:55;100688.63;;;15.50;48.62
81905;BME280;71370;-33.792;151.032;2023-07-08T13:34:15;100694.41;;;15.52;48.40
81905;BME280;71370;-33.792;151.032;2023-07-08T13:36:38;100699.83;;;15.54;48.59
81905;BME280;71370;-33.792;151.032;2023-07-08T13:37:47;100705.62;;;15.55;48.55
81905;BME280;71370;-33.792;151.032;2023-07-08T13:38:56;100706.45;;;15.57;48.58
81905;BME280;71370;-33.792;151.032;2023-07-08T13:40:08;100713.48;;;15.58;48.59
81905;BME280;71370;-33.792;151.032;2023-07-08T13:41:21;100714.91;;;15.59;48.41
81905;BME280;71370;-33.792;151.032;2023-07-08T13:42:29;100712.61;;;15.58;48.66
81905;BME280;71370;-33.792;151.032;2023-07-08T13:43:38;100702.31;;;15.59;48.64
81905;BME280;71370;-33.792;151.032;2023-07-08T13:44:50;100714.70;;;15.60;48.69
81905;BME280;71370;-33.792;151.032;2023-07-08T13:45:58;100713.78;;;15.61;48.71
